createdAt,value
2022-08-31T00:02:39.362Z,73.20
2022-08-31T00:08:07.695Z,73.50
2022-08-31T00:13:36.677Z,73.60
2022-08-31T00:19:06.186Z,73.80
2022-08-31T00:24:36.865Z,74.10
2022-08-31T00:30:10.463Z,74.20
2022-08-31T00:35:42.017Z,74.50
2022-08-31T00:41:11.566Z,74.60
2022-08-31T00:46:42.870Z,74.80
2022-08-31T00:52:24.693Z,75.00
2022-08-31T00:57:56.561Z,75.30
2022-08-31T01:03:25.393Z,75.50
2022-08-31T01:08:56.268Z,75.70
2022-08-31T01:14:24.884Z,76.20
2022-08-31T01:20:22.371Z,76.20
2022-08-31T01:25:52.872Z,76.30
2022-08-31T01:31:30.728Z,76.60
2022-08-31T01:36:59.248Z,76.60
2022-08-31T01:42:34.187Z,76.90
2022-08-31T01:48:02.908Z,77.20
2022-08-31T01:53:32.108Z,77.40
2022-08-31T01:59:01.473Z,77.60
2022-08-31T02:04:45.897Z,77.70
2022-08-31T02:10:14.368Z,77.90
2022-08-31T02:15:42.523Z,78.10
2022-08-31T02:21:10.430Z,78.20
2022-08-31T02:26:39.389Z,78.30
2022-08-31T02:32:07.460Z,78.60
2022-08-31T02:37:37.029Z,78.70
2022-08-31T02:43:08.837Z,79.00
2022-08-31T02:48:37.569Z,79.00
2022-08-31T02:54:06.337Z,79.10
2022-08-31T02:59:34.313Z,79.20
2022-08-31T03:05:08.158Z,79.30
2022-08-31T03:10:38.308Z,79.40
2022-08-31T03:16:07.799Z,79.50
2022-08-31T03:21:35.866Z,79.50
2022-08-31T03:27:03.793Z,79.80
2022-08-31T03:32:32.348Z,79.90
2022-08-31T03:38:02.759Z,80.00
2022-08-31T03:43:30.776Z,80.20
2022-08-31T03:49:03.405Z,80.30
2022-08-31T03:54:33.747Z,80.50
2022-08-31T04:00:05.351Z,80.50
2022-08-31T04:05:44.591Z,80.60
2022-08-31T04:11:18.002Z,80.70
2022-08-31T04:17:25.056Z,80.80
2022-08-31T04:23:00.089Z,80.80
2022-08-31T04:28:36.066Z,81.00
2022-08-31T04:34:08.421Z,81.00
2022-08-31T04:39:36.405Z,81.20
2022-08-31T04:45:19.202Z,81.40
2022-08-31T04:50:50.765Z,81.50
2022-08-31T04:56:25.834Z,81.60
2022-08-31T05:01:54.388Z,81.80
2022-08-31T05:07:41.059Z,81.80
2022-08-31T05:13:09.250Z,82.00
2022-08-31T05:18:45.884Z,82.10
2022-08-31T05:24:21.761Z,82.20
2022-08-31T05:29:49.536Z,82.40
2022-08-31T05:35:36.253Z,82.50
2022-08-31T05:41:10.034Z,82.90
2022-08-31T05:46:38.750Z,83.00
2022-08-31T05:52:06.768Z,83.10
2022-08-31T05:57:34.880Z,83.30
2022-08-31T06:03:02.843Z,83.60
2022-08-31T06:08:30.680Z,83.80
2022-08-31T06:14:01.214Z,83.80
2022-08-31T06:19:29.924Z,83.80
2022-08-31T06:24:58.017Z,83.90
2022-08-31T06:30:27.899Z,83.90
2022-08-31T06:35:57.185Z,84.00
2022-08-31T06:41:58.271Z,84.10
2022-08-31T06:47:49.109Z,84.10
2022-08-31T06:53:19.189Z,84.10
2022-08-31T06:59:25.259Z,84.20
2022-08-31T07:05:24.698Z,84.20
2022-08-31T07:10:54.054Z,84.20
2022-08-31T07:16:24.682Z,84.20
2022-08-31T07:21:57.274Z,84.20
2022-08-31T07:27:25.176Z,84.20
2022-08-31T07:32:56.618Z,84.10
2022-08-31T07:38:44.346Z,84.00
2022-08-31T07:44:14.377Z,84.10
2022-08-31T07:49:47.804Z,84.10
2022-08-31T07:55:30.275Z,84.10
2022-08-31T08:01:03.157Z,84.10
2022-08-31T08:06:32.551Z,84.00
2022-08-31T08:12:10.814Z,83.80
2022-08-31T08:17:51.400Z,83.70
2022-08-31T08:23:28.134Z,83.60
2022-08-31T08:29:16.077Z,83.50
2022-08-31T08:34:45.860Z,83.50
2022-08-31T08:40:31.675Z,83.50
2022-08-31T08:46:15.221Z,83.30
2022-08-31T08:52:11.048Z,83.20
2022-08-31T08:57:46.031Z,83.20
2022-08-31T09:03:44.323Z,83.20
2022-08-31T09:09:57.522Z,83.10
2022-08-31T09:15:37.325Z,82.90
2022-08-31T09:21:22.505Z,82.80
2022-08-31T09:27:18.980Z,82.70
2022-08-31T09:32:57.911Z,82.50
2022-08-31T09:38:39.489Z,82.40
2022-08-31T09:44:34.409Z,82.20
2022-08-31T09:50:03.210Z,82.20
2022-08-31T09:55:31.767Z,82.30
2022-08-31T10:01:13.463Z,82.10
2022-08-31T10:07:09.547Z,82.20
2022-08-31T10:12:55.395Z,82.20
2022-08-31T10:18:55.542Z,82.10
2022-08-31T10:24:44.641Z,82.00
2022-08-31T10:30:29.563Z,81.90
2022-08-31T10:36:01.619Z,81.80
2022-08-31T10:41:39.883Z,82.40
2022-08-31T10:47:08.333Z,81.80
2022-08-31T10:53:02.805Z,81.80
2022-08-31T10:58:41.623Z,82.00
2022-08-31T11:05:10.734Z,82.00
2022-08-31T11:10:52.005Z,82.10
2022-08-31T11:16:42.209Z,82.50
2022-08-31T11:22:52.319Z,82.70
2022-08-31T11:28:48.266Z,82.90
2022-08-31T11:34:28.296Z,83.10
2022-08-31T11:39:56.146Z,83.20
2022-08-31T11:45:33.059Z,83.40
2022-08-31T11:51:07.432Z,83.60
2022-08-31T11:56:39.074Z,83.90
2022-08-31T12:02:25.905Z,84.20
2022-08-31T12:07:54.053Z,84.30
2022-08-31T12:13:49.826Z,84.50
2022-08-31T12:19:44.981Z,84.30
2022-08-31T12:26:04.940Z,84.50
2022-08-31T12:31:35.919Z,85.30
2022-08-31T12:37:30.060Z,84.80
2022-08-31T12:43:16.513Z,84.90
2022-08-31T12:49:03.165Z,85.20
2022-08-31T12:55:09.403Z,85.30
2022-08-31T13:00:40.051Z,85.40
2022-08-31T13:06:15.743Z,85.60
2022-08-31T13:11:43.881Z,85.80
2022-08-31T13:17:18.024Z,86.20
2022-08-31T13:22:48.963Z,86.50
2022-08-31T13:28:26.291Z,86.50
2022-08-31T13:34:03.092Z,86.70
2022-08-31T13:39:35.142Z,86.80
2022-08-31T13:45:09.996Z,87.00
2022-08-31T13:50:52.726Z,87.10
2022-08-31T13:56:48.468Z,87.10
2022-08-31T14:02:16.516Z,87.20
2022-08-31T14:07:55.553Z,87.70
2022-08-31T14:13:27.088Z,88.00
2022-08-31T14:18:58.015Z,88.00
2022-08-31T14:24:28.946Z,88.00
2022-08-31T14:29:58.581Z,88.00
2022-08-31T14:35:27.195Z,87.80
2022-08-31T14:40:56.772Z,88.00
2022-08-31T14:46:28.338Z,88.10
2022-08-31T14:52:03.253Z,88.10
2022-08-31T14:57:33.504Z,88.20
2022-08-31T15:03:02.579Z,88.20
2022-08-31T15:08:38.139Z,88.40
2022-08-31T15:14:15.265Z,88.60
2022-08-31T15:19:44.912Z,88.70
2022-08-31T15:25:15.202Z,88.80
2022-08-31T15:30:43.120Z,88.90
2022-08-31T15:36:15.546Z,89.00
2022-08-31T15:41:43.572Z,89.10
2022-08-31T15:47:30.799Z,89.30
2022-08-31T15:53:06.618Z,89.40
2022-08-31T15:58:42.347Z,89.60
2022-08-31T16:04:16.178Z,89.70
2022-08-31T16:09:46.677Z,89.80
2022-08-31T16:15:16.711Z,90.00
2022-08-31T16:20:46.904Z,90.00
2022-08-31T16:26:17.396Z,90.00
2022-08-31T16:31:51.215Z,89.90
2022-08-31T16:37:24.582Z,89.90
2022-08-31T16:42:52.434Z,89.90
2022-08-31T16:48:49.321Z,89.90
2022-08-31T16:54:18.984Z,89.90
2022-08-31T16:59:47.959Z,89.80
2022-08-31T17:05:15.928Z,89.90
2022-08-31T17:10:43.729Z,89.90
2022-08-31T17:16:13.215Z,90.00
2022-08-31T17:21:50.247Z,90.00
2022-08-31T17:27:22.161Z,90.00
2022-08-31T17:32:50.206Z,90.10
2022-08-31T17:38:18.333Z,90.10
2022-08-31T17:43:46.736Z,90.20
2022-08-31T17:49:15.347Z,90.10
2022-08-31T17:54:43.516Z,90.10
2022-08-31T18:00:14.809Z,90.20
2022-08-31T18:05:46.729Z,90.20
2022-08-31T18:11:14.691Z,90.00
2022-08-31T18:17:05.570Z,90.30
2022-08-31T18:22:33.423Z,90.30
2022-08-31T18:28:03.492Z,90.40
2022-08-31T18:33:33.356Z,90.40
2022-08-31T18:39:02.586Z,90.50
2022-08-31T18:44:49.407Z,90.40
2022-08-31T18:50:17.514Z,90.50
2022-08-31T18:55:46.370Z,90.60
2022-08-31T19:01:15.724Z,90.60
2022-08-31T19:06:47.214Z,90.70
2022-08-31T19:12:19.625Z,90.70
2022-08-31T19:17:49.383Z,90.70
2022-08-31T19:23:20.256Z,91.10
2022-08-31T19:28:50.502Z,90.70
2022-08-31T19:34:23.549Z,90.80
2022-08-31T19:39:53.125Z,90.80
2022-08-31T19:45:23.462Z,90.80
2022-08-31T19:50:58.592Z,90.90
2022-08-31T19:56:31.300Z,90.90
2022-08-31T20:02:03.109Z,90.90
2022-08-31T20:07:37.043Z,91.00
2022-08-31T20:13:10.859Z,91.10
2022-08-31T20:18:47.573Z,91.20
2022-08-31T20:24:21.468Z,91.30
2022-08-31T20:29:59.218Z,91.30
2022-08-31T20:35:43.424Z,91.30
2022-08-31T20:41:14.982Z,91.50
2022-08-31T20:47:10.835Z,91.40
2022-08-31T20:52:40.152Z,91.40
2022-08-31T20:58:08.296Z,91.40
2022-08-31T21:03:37.209Z,91.50
2022-08-31T21:09:07.609Z,91.50
2022-08-31T21:14:38.668Z,91.50
2022-08-31T21:20:07.977Z,92.00
2022-08-31T21:25:44.831Z,91.60
2022-08-31T21:31:27.602Z,91.60
2022-08-31T21:36:57.397Z,91.70
2022-08-31T21:42:25.450Z,91.70
2022-08-31T21:47:55.753Z,91.70
2022-08-31T21:53:25.848Z,91.90
2022-08-31T21:58:54.250Z,91.80
2022-08-31T22:04:23.620Z,91.90
2022-08-31T22:09:51.931Z,92.00
2022-08-31T22:15:24.323Z,92.00
2022-08-31T22:20:53.549Z,92.00
2022-08-31T22:26:24.400Z,92.00
2022-08-31T22:31:56.465Z,92.10
2022-08-31T22:37:26.378Z,92.10
2022-08-31T22:42:54.821Z,92.10
2022-08-31T22:48:23.093Z,92.20
2022-08-31T22:53:51.741Z,92.30
2022-08-31T22:59:27.645Z,92.30
2022-08-31T23:04:57.614Z,92.30
2022-08-31T23:10:25.424Z,92.40
2022-08-31T23:15:53.354Z,92.40
2022-08-31T23:21:21.359Z,92.50
2022-08-31T23:26:50.747Z,92.60
2022-08-31T23:32:26.262Z,92.60
2022-08-31T23:37:54.525Z,92.60
2022-08-31T23:43:23.201Z,92.70
2022-08-31T23:48:54.725Z,92.70
2022-08-31T23:54:24.235Z,92.80
2022-08-31T23:59:53.186Z,92.80
